sensor_id;sensor_type;location;lat;lon;timestamp;pressure;altitude;pressure_sealevel;temperature;humidity
63019;BME280;49105;46.046;10.760;2023-02-13T00:00:18;97580.63;;;0.97;57.78
63019;BME280;49105;46.046;10.760;2023-02-13T00:02:44;97570.53;;;1.02;57.13
63019;BME280;49105;46.046;10.760;2023-02-13T00:05:09;97580.44;;;1.07;57.69
63019;BME280;49105;46.046;10.760;2023-02-13T00:07:35;97578.03;;;1.05;58.08
63019;BME280;49105;46.046;10.760;2023-02-13T00:10:00;97580.94;;;0.94;57.74
63019;BME280;49105;46.046;10.760;2023-02-13T00:12:26;97586.34;;;0.92;57.79
63019;BME280;49105;46.046;10.760;2023-02-13T00:14:51;97591.88;;;0.89;57.43
63019;BME280;49105;46.046;10.760;2023-02-13T00:17:17;97588.13;;;0.92;57.39
63019;BME280;49105;46.046;10.760;2023-02-13T00:19:42;97592.19;;;0.94;57.48
63019;BME280;49105;46.046;10.760;2023-02-13T00:22:08;97584.38;;;1.03;57.88
63019;BME280;49105;46.046;10.760;2023-02-13T00:24:34;97591.88;;;1.14;57.76
63019;BME280;49105;46.046;10.760;2023-02-13T00:26:59;97586.50;;;1.15;57.00
63019;BME280;49105;46.046;10.760;2023-02-13T00:29:24;97592.53;;;0.91;57.69
63019;BME280;49105;46.046;10.760;2023-02-13T00:31:50;97594.97;;;0.77;58.40
63019;BME280;49105;46.046;10.760;2023-02-13T00:34:15;97587.66;;;0.80;58.19
63019;BME280;49105;46.046;10.760;2023-02-13T00:36:41;97589.94;;;0.83;57.86
63019;BME280;49105;46.046;10.760;2023-02-13T00:39:07;97593.19;;;0.85;58.06
63019;BME280;49105;46.046;10.760;2023-02-13T00:41:35;97590.56;;;0.85;58.21
63019;BME280;49105;46.046;10.760;2023-02-13T00:44:00;97596.09;;;0.82;57.89
63019;BME280;49105;46.046;10.760;2023-02-13T00:46:25;97604.59;;;0.76;58.05
63019;BME280;49105;46.046;10.760;2023-02-13T00:48:51;97603.78;;;0.76;57.88
63019;BME280;49105;46.046;10.760;2023-02-13T00:51:16;97599.38;;;0.76;57.74
63019;BME280;49105;46.046;10.760;2023-02-13T00:53:42;97601.00;;;0.77;58.33
63019;BME280;49105;46.046;10.760;2023-02-13T00:56:07;97601.81;;;0.78;57.51
63019;BME280;49105;46.046;10.760;2023-02-13T00:58:33;97599.06;;;0.71;57.94
63019;BME280;49105;46.046;10.760;2023-02-13T01:00:58;97608.81;;;0.69;58.69
63019;BME280;49105;46.046;10.760;2023-02-13T01:03:24;97606.88;;;0.71;58.27
63019;BME280;49105;46.046;10.760;2023-02-13T01:05:51;97599.06;;;0.71;58.20
63019;BME280;49105;46.046;10.760;2023-02-13T01:08:17;97609.97;;;0.66;58.25
63019;BME280;49105;46.046;10.760;2023-02-13T01:10:45;97615.50;;;0.63;58.20
63019;BME280;49105;46.046;10.760;2023-02-13T01:13:11;97608.66;;;0.62;58.59
63019;BME280;49105;46.046;10.760;2023-02-13T01:15:37;97607.84;;;0.62;58.13
63019;BME280;49105;46.046;10.760;2023-02-13T01:18:03;97610.75;;;0.59;58.55
63019;BME280;49105;46.046;10.760;2023-02-13T01:20:29;97607.84;;;0.54;58.42
63019;BME280;49105;46.046;10.760;2023-02-13T01:22:56;97608.13;;;0.42;58.97
63019;BME280;49105;46.046;10.760;2023-02-13T01:25:21;97611.72;;;0.41;58.48
63019;BME280;49105;46.046;10.760;2023-02-13T01:27:47;97613.16;;;0.44;59.02
63019;BME280;49105;46.046;10.760;2023-02-13T01:30:14;97611.53;;;0.43;58.56
63019;BME280;49105;46.046;10.760;2023-02-13T01:32:40;97613.03;;;0.45;59.06
63019;BME280;49105;46.046;10.760;2023-02-13T01:35:06;97614.00;;;0.53;58.61
63019;BME280;49105;46.046;10.760;2023-02-13T01:37:32;97624.09;;;0.56;58.58
63019;BME280;49105;46.046;10.760;2023-02-13T01:39:57;97618.91;;;0.56;58.33
63019;BME280;49105;46.046;10.760;2023-02-13T01:42:28;97619.88;;;0.55;58.57
63019;BME280;49105;46.046;10.760;2023-02-13T01:44:56;97616.59;;;0.53;58.73
63019;BME280;49105;46.046;10.760;2023-02-13T01:47:50;97610.09;;;0.48;58.45
63019;BME280;49105;46.046;10.760;2023-02-13T01:50:33;97618.84;;;0.39;58.56
63019;BME280;49105;46.046;10.760;2023-02-13T01:53:19;97629.22;;;0.23;59.19
63019;BME280;49105;46.046;10.760;2023-02-13T01:55:50;97626.47;;;0.24;59.06
63019;BME280;49105;46.046;10.760;2023-02-13T01:58:19;97624.84;;;0.23;59.03
63019;BME280;49105;46.046;10.760;2023-02-13T02:00:45;97632.19;;;0.36;59.46
63019;BME280;49105;46.046;10.760;2023-02-13T02:03:34;97620.47;;;0.40;59.19
63019;BME280;49105;46.046;10.760;2023-02-13T02:06:01;97611.38;;;0.44;58.79
63019;BME280;49105;46.046;10.760;2023-02-13T02:08:27;97608.78;;;0.44;58.55
63019;BME280;49105;46.046;10.760;2023-02-13T02:10:55;97619.84;;;0.46;58.98
63019;BME280;49105;46.046;10.760;2023-02-13T02:13:25;97613.00;;;0.37;58.91
63019;BME280;49105;46.046;10.760;2023-02-13T02:15:50;97612.63;;;0.24;59.22
63019;BME280;49105;46.046;10.760;2023-02-13T02:18:18;97611.47;;;0.18;59.45
63019;BME280;49105;46.046;10.760;2023-02-13T02:48:08;97601.22;;;0.09;59.26
63019;BME280;49105;46.046;10.760;2023-02-13T02:51:00;97594.53;;;0.06;59.64
63019;BME280;49105;46.046;10.760;2023-02-13T02:54:14;97591.09;;;0.06;59.42
63019;BME280;49105;46.046;10.760;2023-02-13T02:56:25;97596.94;;;0.08;59.35
63019;BME280;49105;46.046;10.760;2023-02-13T02:59:10;97598.72;;;-0.01;59.62
63019;BME280;49105;46.046;10.760;2023-02-13T03:01:55;97600.66;;;-0.11;59.90
63019;BME280;49105;46.046;10.760;2023-02-13T03:04:44;97589.72;;;-0.15;60.26
63019;BME280;49105;46.046;10.760;2023-02-13T03:07:29;97597.88;;;-0.10;59.91
63019;BME280;49105;46.046;10.760;2023-02-13T03:10:06;97593.19;;;-0.06;59.78
63019;BME280;49105;46.046;10.760;2023-02-13T03:13:05;97599.69;;;-0.02;59.39
63019;BME280;49105;46.046;10.760;2023-02-13T03:15:47;97596.63;;;0.03;59.64
63019;BME280;49105;46.046;10.760;2023-02-13T03:18:42;97594.19;;;0.01;59.25
63019;BME280;49105;46.046;10.760;2023-02-13T03:21:40;97594.66;;;-0.04;59.37
63019;BME280;49105;46.046;10.760;2023-02-13T03:25:13;97594.16;;;-0.07;59.29
63019;BME280;49105;46.046;10.760;2023-02-13T03:27:36;97591.66;;;-0.17;60.12
63019;BME280;49105;46.046;10.760;2023-02-13T03:38:56;97593.31;;;-0.16;59.83
63019;BME280;49105;46.046;10.760;2023-02-13T03:41:27;97587.91;;;-0.22;60.06
63019;BME280;49105;46.046;10.760;2023-02-13T03:46:25;97592.91;;;-0.29;60.05
63019;BME280;49105;46.046;10.760;2023-02-13T03:48:52;97590.31;;;-0.29;60.17
63019;BME280;49105;46.046;10.760;2023-02-13T03:51:47;97582.50;;;-0.29;60.51
63019;BME280;49105;46.046;10.760;2023-02-13T03:54:34;97592.59;;;-0.26;60.37
63019;BME280;49105;46.046;10.760;2023-02-13T03:57:22;97586.75;;;-0.28;60.48
63019;BME280;49105;46.046;10.760;2023-02-13T04:00:11;97581.34;;;-0.35;60.13
63019;BME280;49105;46.046;10.760;2023-02-13T04:02:45;97579.72;;;-0.36;60.30
63019;BME280;49105;46.046;10.760;2023-02-13T04:05:24;97579.72;;;-0.36;60.21
63019;BME280;49105;46.046;10.760;2023-02-13T04:07:51;97587.38;;;-0.34;60.50
63019;BME280;49105;46.046;10.760;2023-02-13T04:10:18;97584.75;;;-0.34;60.23
63019;BME280;49105;46.046;10.760;2023-02-13T04:15:28;97585.75;;;-0.35;60.39
63019;BME280;49105;46.046;10.760;2023-02-13T04:18:13;97583.13;;;-0.35;60.36
63019;BME280;49105;46.046;10.760;2023-02-13T04:20:40;97586.38;;;-0.33;60.37
63019;BME280;49105;46.046;10.760;2023-02-13T04:23:06;97584.47;;;-0.31;60.26
63019;BME280;49105;46.046;10.760;2023-02-13T04:25:33;97582.84;;;-0.32;60.36
63019;BME280;49105;46.046;10.760;2023-02-13T04:27:58;97581.84;;;-0.31;60.26
63019;BME280;49105;46.046;10.760;2023-02-13T04:30:24;97582.50;;;-0.29;60.52
63019;BME280;49105;46.046;10.760;2023-02-13T04:32:49;97583.00;;;-0.26;60.44
63019;BME280;49105;46.046;10.760;2023-02-13T04:35:17;97580.09;;;-0.22;60.50
63019;BME280;49105;46.046;10.760;2023-02-13T04:37:42;97578.41;;;-0.40;60.75
63019;BME280;49105;46.046;10.760;2023-02-13T04:40:08;97578.84;;;-0.53;60.71
63019;BME280;49105;46.046;10.760;2023-02-13T04:42:34;97574.91;;;-0.57;60.98
63019;BME280;49105;46.046;10.760;2023-02-13T04:44:59;97575.41;;;-0.53;60.83
63019;BME280;49105;46.046;10.760;2023-02-13T04:47:24;97570.41;;;-0.46;60.72
63019;BME280;49105;46.046;10.760;2023-02-13T04:49:50;97577.22;;;-0.45;60.58
63019;BME280;49105;46.046;10.760;2023-02-13T04:52:15;97576.28;;;-0.44;60.02
63019;BME280;49105;46.046;10.760;2023-02-13T04:54:40;97578.53;;;-0.41;60.60
63019;BME280;49105;46.046;10.760;2023-02-13T04:57:06;97567.31;;;-0.42;60.51
63019;BME280;49105;46.046;10.760;2023-02-13T04:59:31;97579.44;;;-0.59;61.14
63019;BME280;49105;46.046;10.760;2023-02-13T05:01:57;97572.28;;;-0.65;61.03
63019;BME280;49105;46.046;10.760;2023-02-13T05:04:23;97575.00;;;-0.66;60.95
63019;BME280;49105;46.046;10.760;2023-02-13T05:06:49;97578.06;;;-0.71;60.72
63019;BME280;49105;46.046;10.760;2023-02-13T05:09:15;97579.22;;;-0.73;61.05
63019;BME280;49105;46.046;10.760;2023-02-13T05:11:40;97580.84;;;-0.72;61.26
63019;BME280;49105;46.046;10.760;2023-02-13T05:14:06;97583.91;;;-0.77;61.51
63019;BME280;49105;46.046;10.760;2023-02-13T05:16:31;97582.09;;;-0.77;61.26
63019;BME280;49105;46.046;10.760;2023-02-13T05:18:57;97581.28;;;-0.77;61.05
63019;BME280;49105;46.046;10.760;2023-02-13T05:21:22;97585.22;;;-0.73;60.97
63019;BME280;49105;46.046;10.760;2023-02-13T05:24:06;97574.78;;;-0.81;61.07
63019;BME280;49105;46.046;10.760;2023-02-13T05:26:32;97579.28;;;-0.83;61.22
63019;BME280;49105;46.046;10.760;2023-02-13T05:28:57;97576.69;;;-0.83;61.22
63019;BME280;49105;46.046;10.760;2023-02-13T05:31:41;97577.97;;;-0.87;61.40
63019;BME280;49105;46.046;10.760;2023-02-13T05:34:07;97575.59;;;-0.81;61.32
63019;BME280;49105;46.046;10.760;2023-02-13T05:36:32;97576.44;;;-0.72;61.40
63019;BME280;49105;46.046;10.760;2023-02-13T05:38:58;97570.72;;;-0.76;61.43
63019;BME280;49105;46.046;10.760;2023-02-13T05:41:23;97579.81;;;-0.80;61.29
63019;BME280;49105;46.046;10.760;2023-02-13T05:43:49;97574.47;;;-0.78;61.49
63019;BME280;49105;46.046;10.760;2023-02-13T05:46:14;97577.06;;;-0.78;60.98
63019;BME280;49105;46.046;10.760;2023-02-13T05:48:39;97574.56;;;-0.88;61.50
63019;BME280;49105;46.046;10.760;2023-02-13T05:51:05;97574.38;;;-0.94;61.51
63019;BME280;49105;46.046;10.760;2023-02-13T05:53:30;97576.44;;;-0.98;61.87
63019;BME280;49105;46.046;10.760;2023-02-13T05:56:00;97578.88;;;-0.96;61.80
63019;BME280;49105;46.046;10.760;2023-02-13T05:58:25;97579.41;;;-0.93;61.40
63019;BME280;49105;46.046;10.760;2023-02-13T06:00:55;97585.25;;;-0.91;61.59
63019;BME280;49105;46.046;10.760;2023-02-13T06:03:20;97587.72;;;-0.89;61.81
63019;BME280;49105;46.046;10.760;2023-02-13T06:05:46;97593.72;;;-0.89;61.32
63019;BME280;49105;46.046;10.760;2023-02-13T06:08:11;97588.38;;;-0.87;61.32
63019;BME280;49105;46.046;10.760;2023-02-13T06:10:37;97593.56;;;-0.87;61.82
63019;BME280;49105;46.046;10.760;2023-02-13T06:13:02;97602.69;;;-0.83;61.80
63019;BME280;49105;46.046;10.760;2023-02-13T06:15:28;97601.75;;;-0.82;61.53
63019;BME280;49105;46.046;10.760;2023-02-13T06:17:53;97602.22;;;-0.79;61.58
63019;BME280;49105;46.046;10.760;2023-02-13T06:20:19;97613.47;;;-0.78;61.15
63019;BME280;49105;46.046;10.760;2023-02-13T06:22:48;97611.69;;;-0.78;61.55
63019;BME280;49105;46.046;10.760;2023-02-13T06:25:13;97616.72;;;-0.76;61.57
63019;BME280;49105;46.046;10.760;2023-02-13T06:27:39;97615.91;;;-0.77;61.87
63019;BME280;49105;46.046;10.760;2023-02-13T06:30:05;97609.22;;;-0.79;62.08
63019;BME280;49105;46.046;10.760;2023-02-13T06:32:30;97621.56;;;-0.81;61.95
63019;BME280;49105;46.046;10.760;2023-02-13T06:34:56;97629.38;;;-0.81;62.03
63019;BME280;49105;46.046;10.760;2023-02-13T06:37:21;97622.78;;;-0.93;62.02
63019;BME280;49105;46.046;10.760;2023-02-13T06:39:46;97628.94;;;-0.94;62.32
63019;BME280;49105;46.046;10.760;2023-02-13T06:42:12;97628.44;;;-0.98;62.45
63019;BME280;49105;46.046;10.760;2023-02-13T06:44:37;97636.34;;;-1.00;62.76
63019;BME280;49105;46.046;10.760;2023-02-13T06:47:02;97638.31;;;-1.02;62.49
63019;BME280;49105;46.046;10.760;2023-02-13T06:49:28;97631.84;;;-0.97;62.20
63019;BME280;49105;46.046;10.760;2023-02-13T06:51:53;97632.19;;;-0.92;62.60
63019;BME280;49105;46.046;10.760;2023-02-13T06:54:19;97631.75;;;-0.88;62.13
63019;BME280;49105;46.046;10.760;2023-02-13T06:56:44;97631.16;;;-1.00;62.03
63019;BME280;49105;46.046;10.760;2023-02-13T06:59:09;97643.38;;;-1.18;62.72
63019;BME280;49105;46.046;10.760;2023-02-13T07:01:35;97638.75;;;-1.24;62.81
63019;BME280;49105;46.046;10.760;2023-02-13T07:04:00;97644.63;;;-1.22;63.03
63019;BME280;49105;46.046;10.760;2023-02-13T07:06:26;97639.28;;;-1.20;62.73
63019;BME280;49105;46.046;10.760;2023-02-13T07:08:51;97638.53;;;-1.13;62.91
63019;BME280;49105;46.046;10.760;2023-02-13T07:11:21;97637.50;;;-1.02;62.94
63019;BME280;49105;46.046;10.760;2023-02-13T07:13:47;97634.44;;;-0.97;62.85
63019;BME280;49105;46.046;10.760;2023-02-13T07:16:13;97636.06;;;-0.96;62.26
63019;BME280;49105;46.046;10.760;2023-02-13T07:18:38;97635.34;;;-1.07;62.47
63019;BME280;49105;46.046;10.760;2023-02-13T07:21:03;97634.97;;;-1.12;63.10
63019;BME280;49105;46.046;10.760;2023-02-13T07:23:29;97633.03;;;-1.10;63.18
63019;BME280;49105;46.046;10.760;2023-02-13T07:25:58;97630.16;;;-1.07;62.55
63019;BME280;49105;46.046;10.760;2023-02-13T07:28:24;97632.22;;;-1.10;62.68
63019;BME280;49105;46.046;10.760;2023-02-13T07:30:49;97631.78;;;-1.06;62.96
63019;BME280;49105;46.046;10.760;2023-02-13T07:33:15;97632.66;;;-0.97;63.03
63019;BME280;49105;46.046;10.760;2023-02-13T07:35:45;97631.91;;;-0.89;63.10
63019;BME280;49105;46.046;10.760;2023-02-13T07:38:11;97631.66;;;-0.78;62.53
63019;BME280;49105;46.046;10.760;2023-02-13T07:40:36;97632.84;;;-0.72;62.40
63019;BME280;49105;46.046;10.760;2023-02-13T07:43:01;97624.97;;;-0.81;62.57
63019;BME280;49105;46.046;10.760;2023-02-13T07:45:27;97619.03;;;-0.91;63.04
63019;BME280;49105;46.046;10.760;2023-02-13T07:47:56;97628.94;;;-0.94;62.79
63019;BME280;49105;46.046;10.760;2023-02-13T07:50:21;97625.81;;;-0.98;63.39
63019;BME280;49105;46.046;10.760;2023-02-13T07:53:00;97622.09;;;-0.95;63.51
63019;BME280;49105;46.046;10.760;2023-02-13T07:55:27;97622.16;;;-0.87;63.17
63019;BME280;49105;46.046;10.760;2023-02-13T07:57:53;97619.56;;;-0.87;62.94
63019;BME280;49105;46.046;10.760;2023-02-13T08:00:20;97623.66;;;-0.85;62.88
63019;BME280;49105;46.046;10.760;2023-02-13T08:02:46;97620.28;;;-0.77;62.66
63019;BME280;49105;46.046;10.760;2023-02-13T08:05:11;97615.59;;;-0.73;62.83
63019;BME280;49105;46.046;10.760;2023-02-13T08:07:37;97604.75;;;-0.69;62.86
63019;BME280;49105;46.046;10.760;2023-02-13T08:10:05;97607.63;;;-0.72;62.80
63019;BME280;49105;46.046;10.760;2023-02-13T08:12:50;97611.06;;;-0.71;62.95
63019;BME280;49105;46.046;10.760;2023-02-13T08:15:16;97608.31;;;-0.70;62.85
63019;BME280;49105;46.046;10.760;2023-02-13T08:17:41;97607.03;;;-0.66;63.06
63019;BME280;49105;46.046;10.760;2023-02-13T08:20:08;97603.31;;;-0.63;63.05
63019;BME280;49105;46.046;10.760;2023-02-13T08:22:35;97607.22;;;-0.59;62.67
63019;BME280;49105;46.046;10.760;2023-02-13T08:25:01;97601.38;;;-0.61;63.07
63019;BME280;49105;46.046;10.760;2023-02-13T08:27:26;97605.44;;;-0.59;62.26
63019;BME280;49105;46.046;10.760;2023-02-13T08:29:55;97608.72;;;-0.57;62.45
63019;BME280;49105;46.046;10.760;2023-02-13T08:32:21;97594.91;;;-0.57;62.98
63019;BME280;49105;46.046;10.760;2023-02-13T08:34:47;97602.66;;;-0.65;62.60
63019;BME280;49105;46.046;10.760;2023-02-13T08:37:12;97603.78;;;-0.68;63.20
63019;BME280;49105;46.046;10.760;2023-02-13T08:39:38;97588.69;;;-0.64;63.10
63019;BME280;49105;46.046;10.760;2023-02-13T08:42:03;97593.06;;;-0.65;63.27
63019;BME280;49105;46.046;10.760;2023-02-13T08:44:28;97595.34;;;-0.62;63.14
63019;BME280;49105;46.046;10.760;2023-02-13T08:46:54;97587.25;;;-0.59;62.94
63019;BME280;49105;46.046;10.760;2023-02-13T08:49:20;97590.50;;;-0.57;62.85
63019;BME280;49105;46.046;10.760;2023-02-13T08:51:46;97589.59;;;-0.47;62.80
63019;BME280;49105;46.046;10.760;2023-02-13T08:54:11;97588.00;;;-0.40;62.76
63019;BME280;49105;46.046;10.760;2023-02-13T08:56:37;97583.94;;;-0.35;62.56
63019;BME280;49105;46.046;10.760;2023-02-13T08:59:02;97580.22;;;-0.32;62.67
63019;BME280;49105;46.046;10.760;2023-02-13T09:01:28;97570.97;;;-0.27;62.99
63019;BME280;49105;46.046;10.760;2023-02-13T09:03:54;97575.13;;;-0.08;62.72
63019;BME280;49105;46.046;10.760;2023-02-13T09:06:19;97572.91;;;0.14;62.60
63019;BME280;49105;46.046;10.760;2023-02-13T09:08:45;97569.69;;;0.36;62.25
63019;BME280;49105;46.046;10.760;2023-02-13T09:11:10;97565.16;;;0.55;62.47
63019;BME280;49105;46.046;10.760;2023-02-13T09:13:35;97571.69;;;0.83;62.54
63019;BME280;49105;46.046;10.760;2023-02-13T09:16:03;97559.94;;;1.04;62.39
63019;BME280;49105;46.046;10.760;2023-02-13T09:18:29;97564.63;;;1.33;62.44
63019;BME280;49105;46.046;10.760;2023-02-13T09:21:02;97562.69;;;1.74;61.80
63019;BME280;49105;46.046;10.760;2023-02-13T09:23:33;97560.75;;;2.07;61.46
63019;BME280;49105;46.046;10.760;2023-02-13T09:26:04;97558.81;;;2.32;61.60
63019;BME280;49105;46.046;10.760;2023-02-13T09:28:32;97553.28;;;2.50;61.32
63019;BME280;49105;46.046;10.760;2023-02-13T09:30:57;97550.06;;;2.48;61.20
63019;BME280;49105;46.046;10.760;2023-02-13T09:33:24;97550.25;;;2.38;61.31
63019;BME280;49105;46.046;10.760;2023-02-13T09:35:49;97552.59;;;2.33;60.55
63019;BME280;49105;46.046;10.760;2023-02-13T09:38:15;97547.38;;;2.33;60.38
63019;BME280;49105;46.046;10.760;2023-02-13T09:40:45;97547.03;;;2.36;60.33
63019;BME280;49105;46.046;10.760;2023-02-13T09:43:17;97549.47;;;2.38;60.07
63019;BME280;49105;46.046;10.760;2023-02-13T09:45:47;97547.59;;;2.46;59.95
63019;BME280;49105;46.046;10.760;2023-02-13T09:48:26;97546.56;;;2.56;59.99
63019;BME280;49105;46.046;10.760;2023-02-13T09:50:53;97539.63;;;2.63;59.95
63019;BME280;49105;46.046;10.760;2023-02-13T09:53:23;97541.03;;;2.73;59.91
63019;BME280;49105;46.046;10.760;2023-02-13T09:55:59;97544.22;;;2.84;59.56
63019;BME280;49105;46.046;10.760;2023-02-13T09:58:38;97540.91;;;2.90;59.60
63019;BME280;49105;46.046;10.760;2023-02-13T10:01:16;97542.28;;;3.01;59.26
63019;BME280;49105;46.046;10.760;2023-02-13T10:06:28;97536.91;;;3.17;59.22
63019;BME280;49105;46.046;10.760;2023-02-13T10:10:02;97530.59;;;3.26;59.42
63019;BME280;49105;46.046;10.760;2023-02-13T10:18:06;97532.56;;;3.54;58.83
63019;BME280;49105;46.046;10.760;2023-02-13T10:20:54;97525.25;;;3.64;58.62
63019;BME280;49105;46.046;10.760;2023-02-13T10:26:05;97519.47;;;3.83;58.32
63019;BME280;49105;46.046;10.760;2023-02-13T10:28:42;97518.00;;;3.95;58.10
63019;BME280;49105;46.046;10.760;2023-02-13T10:31:14;97508.81;;;4.06;58.08
63019;BME280;49105;46.046;10.760;2023-02-13T10:33:57;97507.44;;;4.25;57.62
63019;BME280;49105;46.046;10.760;2023-02-13T10:36:36;97501.94;;;4.41;57.47
63019;BME280;49105;46.046;10.760;2023-02-13T10:41:52;97494.81;;;4.57;56.83
63019;BME280;49105;46.046;10.760;2023-02-13T10:55:46;97470.59;;;5.11;56.21
63019;BME280;49105;46.046;10.760;2023-02-13T10:58:32;97458.13;;;5.19;56.41
63019;BME280;49105;46.046;10.760;2023-02-13T11:01:08;97450.13;;;5.34;55.98
63019;BME280;49105;46.046;10.760;2023-02-13T11:03:37;97447.75;;;5.46;55.59
63019;BME280;49105;46.046;10.760;2023-02-13T11:06:08;97441.31;;;5.55;55.86
63019;BME280;49105;46.046;10.760;2023-02-13T11:08:40;97437.13;;;5.67;55.28
63019;BME280;49105;46.046;10.760;2023-02-13T11:11:36;97429.28;;;5.74;55.21
63019;BME280;49105;46.046;10.760;2023-02-13T11:19:33;97419.28;;;5.97;55.16
63019;BME280;49105;46.046;10.760;2023-02-13T11:22:12;97418.06;;;6.07;54.81
63019;BME280;49105;46.046;10.760;2023-02-13T11:24:40;97413.41;;;6.09;54.77
63019;BME280;49105;46.046;10.760;2023-02-13T11:27:09;97410.38;;;6.12;54.62
63019;BME280;49105;46.046;10.760;2023-02-13T11:29:55;97406.97;;;6.18;54.42
63019;BME280;49105;46.046;10.760;2023-02-13T11:32:32;97406.16;;;6.24;54.13
63019;BME280;49105;46.046;10.760;2023-02-13T11:35:20;97400.28;;;6.29;54.46
63019;BME280;49105;46.046;10.760;2023-02-13T11:40:35;97396.66;;;6.36;54.02
63019;BME280;49105;46.046;10.760;2023-02-13T11:43:00;97397.47;;;6.43;53.91
63019;BME280;49105;46.046;10.760;2023-02-13T11:45:26;97391.22;;;6.51;53.88
63019;BME280;49105;46.046;10.760;2023-02-13T11:47:53;97387.13;;;6.62;53.78
63019;BME280;49105;46.046;10.760;2023-02-13T11:50:36;97389.38;;;6.71;53.67
63019;BME280;49105;46.046;10.760;2023-02-13T11:53:06;97376.97;;;6.79;53.42
63019;BME280;49105;46.046;10.760;2023-02-13T11:55:35;97376.19;;;6.85;53.00
63019;BME280;49105;46.046;10.760;2023-02-13T11:58:22;97376.75;;;6.93;53.05
63019;BME280;49105;46.046;10.760;2023-02-13T12:00:48;97369.84;;;7.06;52.48
63019;BME280;49105;46.046;10.760;2023-02-13T12:03:34;97362.50;;;7.21;52.39
63019;BME280;49105;46.046;10.760;2023-02-13T12:06:11;97360.63;;;7.28;52.33
63019;BME280;49105;46.046;10.760;2023-02-13T12:08:49;97351.31;;;7.32;51.81
63019;BME280;49105;46.046;10.760;2023-02-13T12:13:50;97349.22;;;7.47;51.70
63019;BME280;49105;46.046;10.760;2023-02-13T12:16:37;97349.59;;;7.51;51.05
63019;BME280;49105;46.046;10.760;2023-02-13T12:19:10;97341.22;;;7.61;50.79
63019;BME280;49105;46.046;10.760;2023-02-13T12:21:59;97343.81;;;7.74;50.60
63019;BME280;49105;46.046;10.760;2023-02-13T12:32:48;97321.13;;;7.98;50.07
63019;BME280;49105;46.046;10.760;2023-02-13T12:37:55;97315.97;;;8.10;50.24
63019;BME280;49105;46.046;10.760;2023-02-13T12:43:27;97313.44;;;8.21;49.48
63019;BME280;49105;46.046;10.760;2023-02-13T12:46:30;97307.88;;;8.30;49.84
63019;BME280;49105;46.046;10.760;2023-02-13T12:49:57;97300.34;;;8.33;49.67
63019;BME280;49105;46.046;10.760;2023-02-13T12:52:21;97290.78;;;8.39;49.22
63019;BME280;49105;46.046;10.760;2023-02-13T13:03:45;97282.00;;;8.63;48.47
63019;BME280;49105;46.046;10.760;2023-02-13T13:06:34;97281.34;;;8.68;48.50
63019;BME280;49105;46.046;10.760;2023-02-13T13:16:58;97276.44;;;8.90;47.86
63019;BME280;49105;46.046;10.760;2023-02-13T13:28:04;97269.53;;;9.07;47.30
63019;BME280;49105;46.046;10.760;2023-02-13T13:30:35;97268.28;;;9.10;46.93
63019;BME280;49105;46.046;10.760;2023-02-13T13:33:21;97261.44;;;9.20;47.34
63019;BME280;49105;46.046;10.760;2023-02-13T13:41:40;97253.19;;;9.29;47.24
63019;BME280;49105;46.046;10.760;2023-02-13T13:47:16;97257.81;;;9.33;46.74
63019;BME280;49105;46.046;10.760;2023-02-13T13:49:55;97262.53;;;9.31;46.18
63019;BME280;49105;46.046;10.760;2023-02-13T13:52:27;97254.81;;;9.30;46.76
63019;BME280;49105;46.046;10.760;2023-02-13T13:54:55;97253.56;;;9.32;46.56
63019;BME280;49105;46.046;10.760;2023-02-13T14:02:39;97252.16;;;9.30;46.52
63019;BME280;49105;46.046;10.760;2023-02-13T14:05:24;97255.97;;;9.34;45.88
63019;BME280;49105;46.046;10.760;2023-02-13T14:07:59;97255.88;;;9.40;45.94
63019;BME280;49105;46.046;10.760;2023-02-13T14:31:36;97245.91;;;9.54;42.52
63019;BME280;49105;46.046;10.760;2023-02-13T14:36:46;97241.47;;;9.55;42.48
63019;BME280;49105;46.046;10.760;2023-02-13T14:39:21;97238.13;;;9.59;41.71
63019;BME280;49105;46.046;10.760;2023-02-13T14:44:19;97238.13;;;9.59;41.83
63019;BME280;49105;46.046;10.760;2023-02-13T14:46:48;97237.91;;;9.61;41.33
63019;BME280;49105;46.046;10.760;2023-02-13T14:51:56;97226.75;;;9.59;41.56
63019;BME280;49105;46.046;10.760;2023-02-13T14:54:31;97232.94;;;9.53;41.89
63019;BME280;49105;46.046;10.760;2023-02-13T14:57:14;97230.28;;;9.53;41.37
63019;BME280;49105;46.046;10.760;2023-02-13T14:59:46;97233.38;;;9.50;42.16
63019;BME280;49105;46.046;10.760;2023-02-13T15:02:25;97232.59;;;9.49;41.91
63019;BME280;49105;46.046;10.760;2023-02-13T15:05:05;97236.50;;;9.47;41.68
63019;BME280;49105;46.046;10.760;2023-02-13T15:07:34;97237.50;;;9.45;41.27
63019;BME280;49105;46.046;10.760;2023-02-13T15:10:05;97233.25;;;9.44;41.56
63019;BME280;49105;46.046;10.760;2023-02-13T15:12:36;97235.53;;;9.41;41.62
63019;BME280;49105;46.046;10.760;2023-02-13T15:15:21;97235.19;;;9.37;42.06
63019;BME280;49105;46.046;10.760;2023-02-13T15:17:47;97227.94;;;9.33;42.17
63019;BME280;49105;46.046;10.760;2023-02-13T15:20:32;97228.75;;;9.33;41.90
63019;BME280;49105;46.046;10.760;2023-02-13T15:22:58;97232.28;;;9.27;42.58
63019;BME280;49105;46.046;10.760;2023-02-13T15:27:54;97235.69;;;9.16;42.65
63019;BME280;49105;46.046;10.760;2023-02-13T15:30:26;97239.81;;;9.12;43.21
63019;BME280;49105;46.046;10.760;2023-02-13T15:32:59;97237.41;;;9.10;43.15
63019;BME280;49105;46.046;10.760;2023-02-13T15:35:31;97241.72;;;9.05;43.21
63019;BME280;49105;46.046;10.760;2023-02-13T15:37:58;97234.94;;;8.97;43.02
63019;BME280;49105;46.046;10.760;2023-02-13T15:40:32;97239.13;;;8.86;43.29
63019;BME280;49105;46.046;10.760;2023-02-13T15:43:02;97253.06;;;8.75;43.75
63019;BME280;49105;46.046;10.760;2023-02-13T15:45:28;97256.09;;;8.60;44.06
63019;BME280;49105;46.046;10.760;2023-02-13T15:47:55;97258.25;;;8.45;44.50
63019;BME280;49105;46.046;10.760;2023-02-13T15:50:34;97263.03;;;8.30;44.50
63019;BME280;49105;46.046;10.760;2023-02-13T15:53:03;97262.38;;;8.16;44.83
63019;BME280;49105;46.046;10.760;2023-02-13T15:55:32;97267.78;;;8.03;45.38